Time;durP1;ratioP1;P1;durP2;ratioP2;P2;SDS_P1;SDS_P2;PMS_P1;PMS_P2;Temp;Humidity;BMP_temperature;BMP_pressure;BME280_temperature;BME280_humidity;BME280_pressure;Samples;Min_cycle;Max_cycle;Signal;HPM_P1;HPM_P2
2022/07/06 00:00:16;;;;;;;4.13;3.60;;;;;;;27.65;52.88;100999.91;5076093;28;20055;-76
2022/07/06 00:02:43;;;;;;;5.00;4.25;;;;;;;27.66;52.95;101007.03;5077240;28;20403;-76
2022/07/06 00:05:11;;;;;;;4.60;3.88;;;;;;;27.67;52.86;101016.88;5077102;28;20057;-76
2022/07/06 00:07:38;;;;;;;6.63;4.05;;;;;;;27.66;52.48;101015.19;5075507;28;20048;-76
2022/07/06 00:10:07;;;;;;;10.18;4.05;;;;;;;27.67;52.65;101019.59;5075748;28;20052;-76
2022/07/06 00:12:34;;;;;;;4.88;3.50;;;;;;;27.68;52.71;101024.03;5077616;28;20049;-76
2022/07/06 00:15:02;;;;;;;4.55;4.13;;;;;;;27.68;52.75;101030.31;5076992;28;20044;-76
2022/07/06 00:17:29;;;;;;;6.38;3.58;;;;;;;27.68;52.50;101037.63;5077495;28;20036;-76
2022/07/06 00:19:57;;;;;;;6.20;4.00;;;;;;;27.68;52.58;101043.91;5077482;28;20045;-76
2022/07/06 00:22:24;;;;;;;4.00;3.30;;;;;;;27.70;52.60;101041.00;5075978;28;20063;-77
2022/07/06 00:24:52;;;;;;;4.57;3.65;;;;;;;27.70;52.66;101046.44;5076963;28;20048;-75
2022/07/06 00:27:19;;;;;;;3.92;3.50;;;;;;;27.71;52.50;101048.13;5076929;28;20045;-75
2022/07/06 00:29:47;;;;;;;4.55;3.58;;;;;;;27.71;52.51;101046.28;5075179;28;20044;-75
2022/07/06 00:32:14;;;;;;;4.97;3.95;;;;;;;27.72;52.50;101041.69;5075506;28;20052;-75
2022/07/06 00:34:41;;;;;;;4.97;4.07;;;;;;;27.72;52.78;101044.41;5075131;28;20065;-75
2022/07/06 00:37:09;;;;;;;6.53;3.70;;;;;;;27.72;52.78;101041.69;5076850;28;20055;-75
2022/07/06 00:39:37;;;;;;;4.68;3.92;;;;;;;27.72;52.97;101034.38;5076435;28;20040;-75
2022/07/06 00:42:05;;;;;;;5.93;3.83;;;;;;;27.73;53.03;101040.66;5058077;28;20072;-75
2022/07/06 00:44:33;;;;;;;4.30;3.70;;;;;;;27.74;52.69;101036.91;5075020;28;20044;-75
2022/07/06 00:47:00;;;;;;;4.57;3.50;;;;;;;27.74;52.89;101036.91;5074974;28;20059;-75
2022/07/06 00:52:15;;;;;;;3.97;3.47;;;;;;;27.74;52.89;101021.44;5077033;28;20048;-75
2022/07/06 00:54:43;;;;;;;5.38;3.58;;;;;;;27.76;52.93;101030.28;5074645;28;20048;-78
2022/07/06 00:57:10;;;;;;;5.88;3.42;;;;;;;27.76;52.43;101029.44;5076228;28;20048;-77
2022/07/06 00:59:38;;;;;;;6.95;3.78;;;;;;;27.76;52.91;101024.00;5057937;28;20059;-76
2022/07/06 01:02:05;;;;;;;4.88;3.95;;;;;;;27.76;52.92;101021.28;5077003;28;20048;-75
2022/07/06 01:04:33;;;;;;;5.40;4.00;;;;;;;27.75;52.84;101031.31;5074250;28;20048;-76
2022/07/06 01:07:01;;;;;;;3.70;2.90;;;;;;;27.77;53.09;101034.69;5075123;28;20044;-76
2022/07/06 01:09:29;;;;;;;4.47;3.42;;;;;;;27.77;53.02;101040.13;5076642;28;20040;-76
2022/07/06 01:11:56;;;;;;;4.68;3.40;;;;;;;27.79;52.95;101045.38;5075186;28;20056;-76
2022/07/06 01:14:24;;;;;;;4.18;3.50;;;;;;;27.79;52.89;101042.66;5076300;28;20048;-76
2022/07/06 01:16:51;;;;;;;4.90;3.42;;;;;;;27.79;53.03;101042.66;5074885;28;20056;-76
2022/07/06 01:19:19;;;;;;;4.10;3.38;;;;;;;27.80;53.19;101041.66;5074683;28;20052;-78
2022/07/06 01:21:46;;;;;;;3.83;3.08;;;;;;;27.80;53.21;101034.31;5075944;28;20036;-76
2022/07/06 01:24:14;;;;;;;4.78;3.05;;;;;;;27.80;53.24;101049.81;5074474;28;20060;-77
2022/07/06 01:26:41;;;;;;;6.05;3.30;;;;;;;27.81;52.91;101043.34;5074804;28;20055;-79
2022/07/06 01:29:08;;;;;;;3.83;3.35;;;;;;;27.80;53.11;101042.50;5075197;28;20044;-76
2022/07/06 01:31:47;;;;;;;4.63;3.15;;;;;;;27.82;53.07;101053.19;5074138;28;20056;-75
2022/07/06 01:34:16;;;;;;;4.93;3.45;;;;;;;27.81;52.95;101043.34;5075658;28;20051;-74
2022/07/06 01:36:44;;;;;;;4.80;3.30;;;;;;;27.81;53.00;101052.34;5074282;28;20052;-74
2022/07/06 01:39:11;;;;;;;4.60;3.50;;;;;;;27.82;53.08;101053.19;5074112;28;20059;-75
2022/07/06 01:41:39;;;;;;;5.65;3.20;;;;;;;27.83;53.08;101060.31;5074376;28;20045;-75
2022/07/06 01:44:07;;;;;;;3.42;3.13;;;;;;;27.82;53.08;101062.19;5076497;28;20056;-75
2022/07/06 01:46:36;;;;;;;4.18;3.33;;;;;;;27.82;52.63;101054.03;5074329;28;20045;-74
2022/07/06 01:49:05;;;;;;;3.80;3.40;;;;;;;27.82;52.88;101059.47;5075042;28;20045;-74
2022/07/06 01:51:33;;;;;;;4.22;3.08;;;;;;;27.82;52.70;101058.63;5075009;28;20048;-75
2022/07/06 01:54:00;;;;;;;4.45;3.05;;;;;;;27.82;52.41;101058.63;5074978;28;20052;-75
2022/07/06 01:56:29;;;;;;;4.35;2.70;;;;;;;27.81;52.26;101051.50;5075889;28;20037;-75
2022/07/06 01:59:01;;;;;;;3.72;3.00;;;;;;;27.81;52.32;101049.63;5073903;28;20068;-75
2022/07/06 02:01:28;;;;;;;4.80;3.15;;;;;;;27.81;52.45;101054.22;5073807;28;20059;-75
2022/07/06 02:03:55;;;;;;;4.15;2.72;;;;;;;27.80;52.27;101058.81;5073561;28;20048;-75
2022/07/06 02:06:23;;;;;;;3.50;2.78;;;;;;;27.81;51.99;101062.38;5073134;28;20053;-75
2022/07/06 02:08:51;;;;;;;4.07;2.65;;;;;;;27.80;51.65;101058.81;5075098;28;20044;-75
2022/07/06 02:11:19;;;;;;;3.58;2.47;;;;;;;27.81;51.60;101070.53;5073430;28;20044;-76
2022/07/06 02:13:47;;;;;;;3.90;2.72;;;;;;;27.81;51.59;101070.53;5057061;28;20067;-76
2022/07/06 02:16:14;;;;;;;2.72;2.33;;;;;;;27.80;51.42;101066.13;5072734;28;20060;-76
2022/07/06 02:18:42;;;;;;;5.80;2.80;;;;;;;27.80;51.42;101079.72;5073692;28;20127;-76
2022/07/06 02:21:09;;;;;;;4.95;2.58;;;;;;;27.80;51.43;101083.28;5075934;28;20045;-77
2022/07/06 02:23:37;;;;;;;2.88;2.28;;;;;;;27.80;51.58;101088.75;5073218;28;20059;-76
2022/07/06 02:26:04;;;;;;;3.75;2.70;;;;;;;27.80;51.57;101096.06;5073115;28;20056;-76
2022/07/06 02:28:32;;;;;;;2.60;2.17;;;;;;;27.80;51.66;101101.50;5073140;28;20539;-76
2022/07/06 02:30:59;;;;;;;4.25;2.55;;;;;;;27.81;51.62;101097.75;5073574;28;20518;-76
2022/07/06 02:33:28;;;;;;;4.13;2.78;;;;;;;27.81;51.65;101105.91;5073113;28;20048;-76
2022/07/06 02:35:56;;;;;;;4.00;2.95;;;;;;;27.82;51.77;101110.31;5072958;28;20052;-77
2022/07/06 02:38:23;;;;;;;4.32;3.05;;;;;;;27.81;51.24;101114.06;5074301;28;20392;-77
2022/07/06 02:40:52;;;;;;;3.35;2.75;;;;;;;27.81;51.68;101127.66;5073142;28;20059;-77
2022/07/06 02:43:19;;;;;;;3.28;2.22;;;;;;;27.82;51.21;101134.78;5074175;28;20056;-77
2022/07/06 02:45:46;;;;;;;4.28;2.63;;;;;;;27.82;51.58;101134.78;5056710;28;20053;-77
2022/07/06 02:48:15;;;;;;;3.97;2.50;;;;;;;27.82;51.00;101145.69;5073619;28;20357;-76
2022/07/06 02:50:42;;;;;;;3.97;2.13;;;;;;;27.81;51.18;101141.28;5072849;28;20055;-77
2022/07/06 02:53:10;;;;;;;4.18;2.70;;;;;;;27.80;50.83;101142.31;5073266;28;20059;-76
2022/07/06 02:55:37;;;;;;;3.83;2.42;;;;;;;27.78;51.05;101144.34;5072527;28;20071;-77
2022/07/06 02:58:06;;;;;;;4.32;2.50;;;;;;;27.77;50.92;101143.50;5073047;28;20072;-76
2022/07/06 03:00:34;;;;;;;3.78;2.25;;;;;;;27.77;51.47;101148.94;5074546;28;20048;-76
2022/07/06 03:03:02;;;;;;;5.07;2.45;;;;;;;27.77;51.27;101153.53;5072455;28;20070;-75
2022/07/06 03:05:31;;;;;;;3.40;2.58;;;;;;;27.76;51.38;101165.47;5072215;28;20484;-76
2022/07/06 03:07:59;;;;;;;5.70;2.67;;;;;;;27.75;51.13;101166.47;5073898;28;20044;-76
2022/07/06 03:10:27;;;;;;;3.05;2.33;;;;;;;27.74;50.92;101173.78;5072934;28;20048;-76
2022/07/06 03:12:55;;;;;;;3.17;2.13;;;;;;;27.74;51.15;101172.94;5072063;28;20052;-77
2022/07/06 03:15:23;;;;;;;3.70;2.08;;;;;;;27.74;50.81;101173.78;5073800;28;20055;-76
2022/07/06 03:17:50;;;;;;;5.18;2.17;;;;;;;27.74;50.74;101170.22;5071835;28;20048;-76
2022/07/06 03:20:19;;;;;;;3.05;2.50;;;;;;;27.73;51.41;101182.09;5074427;28;20380;-77
2022/07/06 03:22:47;;;;;;;3.92;2.60;;;;;;;27.73;51.23;101190.25;5072491;28;20055;-77
2022/07/06 03:25:15;;;;;;;3.13;2.30;;;;;;;27.73;51.05;101204.75;5071955;28;20049;-77
2022/07/06 03:27:43;;;;;;;3.25;2.17;;;;;;;27.72;51.13;101203.03;5072183;28;20048;-77
2022/07/06 03:30:13;;;;;;;3.72;2.30;;;;;;;27.71;50.82;101198.63;5073619;28;20045;-77
2022/07/06 03:32:46;;;;;;;3.97;2.38;;;;;;;27.72;51.13;101194.88;5072261;28;20053;-77
2022/07/06 03:35:14;;;;;;;3.97;2.42;;;;;;;27.72;50.61;101194.03;5055540;28;20060;-77
2022/07/06 03:37:43;;;;;;;2.83;2.20;;;;;;;27.69;51.02;101194.38;5071614;28;20053;-77
2022/07/06 03:40:11;;;;;;;3.38;2.10;;;;;;;27.69;50.85;101197.94;5072189;28;20048;-77
2022/07/06 03:42:39;;;;;;;4.00;2.42;;;;;;;27.69;51.36;101180.75;5072198;28;20056;-77
2022/07/06 03:45:09;;;;;;;3.30;2.30;;;;;;;27.69;51.19;101181.59;5071478;28;20044;-77
2022/07/06 03:47:40;;;;;;;2.47;2.25;;;;;;;27.69;51.12;101178.03;5072162;28;20048;-77
2022/07/06 03:50:09;;;;;;;3.17;2.22;;;;;;;27.68;51.27;101188.09;5071630;28;20412;-77
2022/07/06 03:52:40;;;;;;;4.35;2.53;;;;;;;27.65;51.34;101182.16;5071833;28;20060;-77
2022/07/06 03:55:10;;;;;;;3.10;2.10;;;;;;;27.63;51.17;101187.78;5071783;28;20052;-77
2022/07/06 03:57:40;;;;;;;3.42;2.40;;;;;;;27.62;51.09;101194.22;5072476;28;20052;-77
2022/07/06 04:00:12;;;;;;;3.78;2.22;;;;;;;27.61;51.40;101195.25;5071795;28;20052;-77
2022/07/06 04:02:46;;;;;;;3.50;2.40;;;;;;;27.59;51.80;101187.28;5071882;28;20423;-77
2022/07/06 04:05:22;;;;;;;3.30;2.35;;;;;;;27.60;51.69;101191.69;5071324;28;20059;-77
2022/07/06 04:07:52;;;;;;;4.82;2.20;;;;;;;27.59;51.46;101184.56;5055205;28;20047;-76
2022/07/06 04:10:24;;;;;;;5.10;2.05;;;;;;;27.60;51.69;101185.41;5071507;28;20052;-77
2022/07/06 04:12:52;;;;;;;3.80;2.45;;;;;;;27.59;51.89;101181.84;5073048;28;20052;-77
2022/07/06 04:15:19;;;;;;;2.80;2.10;;;;;;;27.59;51.81;101192.72;5073042;28;20048;-77
2022/07/06 04:17:53;;;;;;;3.53;2.05;;;;;;;27.58;51.82;101188.28;5071257;28;20420;-77
2022/07/06 04:20:31;;;;;;;4.30;2.20;;;;;;;27.60;51.50;101186.25;5071844;28;20052;-77
2022/07/06 04:22:59;;;;;;;3.58;1.85;;;;;;;27.60;51.44;101191.69;5071546;28;20053;-77
2022/07/06 04:25:27;;;;;;;3.03;2.15;;;;;;;27.61;51.63;101203.41;5071748;28;20049;-77
2022/07/06 04:27:58;;;;;;;4.03;2.00;;;;;;;27.60;51.67;101197.13;5071655;28;20060;-77
2022/07/06 04:30:27;;;;;;;6.40;2.40;;;;;;;27.60;51.69;101197.13;5071345;28;20053;-77
2022/07/06 04:32:55;;;;;;;4.22;2.20;;;;;;;27.60;51.35;101197.13;5054946;28;20056;-77
2022/07/06 04:35:25;;;;;;;4.40;2.10;;;;;;;27.61;51.42;101197.97;5071182;28;20048;-77
2022/07/06 04:37:54;;;;;;;3.15;2.00;;;;;;;27.60;51.64;101202.56;5072300;28;20403;-77
2022/07/06 04:40:22;;;;;;;4.28;1.85;;;;;;;27.61;51.63;101208.84;5072965;28;20068;-77
2022/07/06 04:42:53;;;;;;;4.97;2.30;;;;;;;27.61;51.74;101203.41;5076507;28;20522;-77
2022/07/06 04:45:22;;;;;;;6.60;2.40;;;;;;;27.64;52.00;101202.22;5075359;28;20049;-77
2022/07/06 04:47:49;;;;;;;4.05;2.10;;;;;;;27.63;51.55;101195.94;5075097;28;20055;-77
2022/07/06 04:50:18;;;;;;;4.85;2.00;;;;;;;27.64;51.78;101196.78;5074947;28;20067;-77
2022/07/06 04:52:46;;;;;;;3.90;2.20;;;;;;;27.65;51.75;101198.47;5075045;28;20067;-77
2022/07/06 04:55:14;;;;;;;3.58;2.13;;;;;;;27.63;51.71;101195.94;5058038;28;20048;-77
2022/07/06 04:57:42;;;;;;;3.75;2.35;;;;;;;27.64;51.97;101205.78;5074650;28;20049;-78
2022/07/06 05:00:12;;;;;;;6.72;2.90;;;;;;;27.65;52.04;101206.63;5074892;28;20056;-77
2022/07/06 05:02:41;;;;;;;5.53;2.40;;;;;;;27.66;51.59;101211.03;5074922;28;20056;-77
2022/07/06 05:05:11;;;;;;;5.00;2.22;;;;;;;27.65;52.19;101204.75;5057972;28;20056;-77
2022/07/06 05:07:39;;;;;;;3.67;2.08;;;;;;;27.66;51.79;101211.88;5074676;28;20053;-77
2022/07/06 05:10:09;;;;;;;5.25;2.17;;;;;;;27.66;51.91;101216.47;5074226;28;20071;-77
2022/07/06 05:12:38;;;;;;;3.80;2.00;;;;;;;27.65;52.04;101218.34;5074325;28;20407;-77
2022/07/06 05:15:07;;;;;;;4.90;2.33;;;;;;;27.65;51.58;101221.06;5057545;28;20053;-77
2022/07/06 05:17:35;;;;;;;6.45;1.70;;;;;;;27.65;51.79;101221.06;5075907;28;20045;-77
2022/07/06 05:20:05;;;;;;;5.07;2.50;;;;;;;27.66;51.66;101222.75;5074216;28;20514;-77
2022/07/06 05:22:36;;;;;;;3.03;1.92;;;;;;;27.66;51.37;101221.91;5074322;28;20056;-77
2022/07/06 05:25:13;;;;;;;3.38;2.15;;;;;;;27.67;51.48;101218.16;5074863;28;20127;-77
2022/07/06 05:27:41;;;;;;;3.75;1.95;;;;;;;27.67;51.71;101223.59;5075359;28;20053;-77
2022/07/06 05:30:09;;;;;;;3.15;1.70;;;;;;;27.67;51.42;101221.75;5076167;28;20388;-77
2022/07/06 05:32:38;;;;;;;2.78;1.60;;;;;;;27.68;51.62;101225.31;5074416;28;20063;-77
2022/07/06 05:35:06;;;;;;;2.45;1.80;;;;;;;27.69;51.74;101227.00;5074323;28;20052;-77
2022/07/06 05:37:54;;;;;;;4.30;2.10;;;;;;;27.68;51.53;101233.47;5061097;28;20511;-77
2022/07/06 05:40:22;;;;;;;3.20;1.85;;;;;;;27.68;51.14;101236.19;5074573;28;20044;-77
2022/07/06 05:42:50;;;;;;;2.10;1.50;;;;;;;27.67;51.58;101238.06;5074041;28;20047;-77
2022/07/06 05:45:18;;;;;;;2.25;1.48;;;;;;;27.68;51.19;101242.47;5075352;28;20052;-77
2022/07/06 05:50:34;;;;;;;3.35;1.60;;;;;;;27.66;51.19;101249.97;5074398;28;20053;-77
2022/07/06 05:53:04;;;;;;;2.47;1.45;;;;;;;27.66;51.11;101260.84;5075278;28;20041;-77
2022/07/06 05:55:42;;;;;;;3.72;1.70;;;;;;;27.66;51.00;101255.41;5074758;28;20048;-77
2022/07/06 05:58:09;;;;;;;3.55;1.70;;;;;;;27.66;51.15;101260.00;5074016;28;20044;-77
2022/07/06 06:00:37;;;;;;;3.97;1.88;;;;;;;27.67;51.09;101256.25;5075568;28;20048;-77
2022/07/06 06:03:11;;;;;;;5.47;1.98;;;;;;;27.67;51.10;101264.41;5073403;28;20055;-77
2022/07/06 06:05:38;;;;;;;2.88;1.70;;;;;;;27.66;50.56;101258.13;5075512;28;20044;-77
2022/07/06 06:08:08;;;;;;;3.58;1.60;;;;;;;27.68;51.04;101263.41;5073306;28;20052;-77
2022/07/06 06:10:36;;;;;;;3.72;1.80;;;;;;;27.68;50.75;101268.84;5057259;28;20041;-77
2022/07/06 06:13:07;;;;;;;4.40;1.55;;;;;;;27.69;50.82;101267.81;5075072;28;20041;-78
2022/07/06 06:15:36;;;;;;;2.25;1.35;;;;;;;27.70;51.15;101267.63;5073194;28;20045;-77
2022/07/06 06:18:04;;;;;;;4.28;1.80;;;;;;;27.69;51.29;101271.38;5073354;28;20056;-77
2022/07/06 06:20:32;;;;;;;3.17;1.52;;;;;;;27.71;51.05;101279.34;5074980;28;20040;-77
2022/07/06 06:23:00;;;;;;;3.15;1.70;;;;;;;27.70;51.21;101278.50;5073647;28;20484;-77
2022/07/06 06:25:35;;;;;;;3.72;1.90;;;;;;;27.69;50.90;101282.25;5074407;28;20396;-78
2022/07/06 06:28:06;;;;;;;2.50;1.70;;;;;;;27.70;50.82;101292.09;5075241;28;20048;-77
2022/07/06 06:30:34;;;;;;;2.53;1.70;;;;;;;27.70;50.97;101289.38;5074890;28;20036;-77
2022/07/06 06:33:20;;;;;;;3.00;1.77;;;;;;;27.70;50.74;101283.09;5074098;28;20419;-77
2022/07/06 06:35:52;;;;;;;4.50;1.52;;;;;;;27.69;50.72;101284.97;5075881;28;20055;-78
2022/07/06 06:38:22;;;;;;;3.63;1.60;;;;;;;27.69;50.18;101286.84;5074416;28;20051;-77
2022/07/06 06:40:50;;;;;;;3.13;1.60;;;;;;;27.66;50.49;101281.75;5075197;28;20044;-78
2022/07/06 06:43:17;;;;;;;4.50;1.55;;;;;;;27.65;50.76;101293.66;5074082;28;20079;-78
2022/07/06 06:46:11;;;;;;;2.67;1.35;;;;;;;27.65;50.70;101285.50;5070273;28;20063;-78
2022/07/06 06:48:38;;;;;;;7.30;2.05;;;;;;;27.65;50.93;101299.09;5074830;28;20050;-81
2022/07/06 06:51:05;;;;;;;4.70;1.90;;;;;;;27.65;51.15;101288.22;5074088;28;20052;-77
2022/07/06 06:53:33;;;;;;;5.65;1.77;;;;;;;27.62;50.91;101283.97;5073024;28;20435;-76
2022/07/06 06:56:06;;;;;;;5.25;1.95;;;;;;;27.62;51.51;101275.81;5054252;28;20048;-77
2022/07/06 06:58:34;;;;;;;4.80;1.85;;;;;;;27.61;51.90;101277.69;5053768;28;20503;-76
2022/07/06 07:01:21;;;;;;;2.58;1.95;;;;;;;27.60;51.27;101278.72;5052328;28;20059;-76
2022/07/06 07:03:50;;;;;;;5.28;1.88;;;;;;;27.59;51.62;101279.75;5054131;28;20503;-76
2022/07/06 07:06:18;;;;;;;18.50;2.80;;;;;;;27.63;51.12;101276.66;5053875;28;20078;-77
2022/07/06 07:08:45;;;;;;;6.70;2.33;;;;;;;27.61;51.52;101274.97;5053958;28;20059;-76
2022/07/06 07:11:12;;;;;;;4.55;2.15;;;;;;;27.64;51.44;101275.66;5054365;28;20045;-76
2022/07/06 07:13:40;;;;;;;9.20;2.25;;;;;;;27.66;51.68;101274.44;5051848;28;20055;-75
2022/07/06 07:16:07;;;;;;;7.45;2.08;;;;;;;27.68;51.66;101274.28;5053451;28;20048;-76
2022/07/06 07:18:35;;;;;;;5.28;2.47;;;;;;;27.69;51.48;101270.53;5051716;28;20049;-77
2022/07/06 07:21:02;;;;;;;6.75;2.20;;;;;;;27.70;50.79;101280.38;5053442;28;20040;-77
2022/07/06 07:23:30;;;;;;;6.35;1.95;;;;;;;27.71;50.78;101273.91;5054250;28;20469;-79
2022/07/06 07:25:57;;;;;;;7.40;3.10;;;;;;;27.70;50.46;101275.78;5053948;28;20535;-78
2022/07/06 07:28:24;;;;;;;5.82;2.28;;;;;;;27.69;50.90;101267.81;5071178;28;20051;-76
2022/07/06 07:30:53;;;;;;;3.50;1.80;;;;;;;27.69;50.79;101275.97;5075045;28;20040;-77
2022/07/06 07:33:20;;;;;;;5.93;2.13;;;;;;;27.68;51.17;101260.69;5073927;28;20040;-75
2022/07/06 07:35:48;;;;;;;8.38;2.20;;;;;;;27.68;51.50;101257.97;5076145;28;20045;-77
2022/07/06 07:38:15;;;;;;;6.32;2.25;;;;;;;27.67;51.56;101257.13;5075497;28;20045;-78
2022/07/06 07:40:42;;;;;;;7.90;2.10;;;;;;;27.65;51.30;101259.16;5074286;28;20052;-77
2022/07/06 07:43:10;;;;;;;6.32;1.98;;;;;;;27.65;51.21;101267.31;5073428;28;20056;-75
2022/07/06 07:45:37;;;;;;;6.13;1.85;;;;;;;27.62;51.71;101262.22;5073630;28;20428;-74
2022/07/06 07:48:05;;;;;;;5.20;1.90;;;;;;;27.61;51.95;101265.97;5073450;28;20053;-75
2022/07/06 07:50:34;;;;;;;3.30;1.98;;;;;;;27.59;51.82;101262.59;5073296;28;20041;-76
2022/07/06 07:53:02;;;;;;;4.70;1.95;;;;;;;27.56;51.93;101260.22;5073902;28;20051;-76
2022/07/06 07:55:29;;;;;;;4.13;1.85;;;;;;;27.53;51.60;101261.41;5073248;28;20053;-77
2022/07/06 07:58:08;;;;;;;3.85;1.60;;;;;;;27.52;52.25;101257.00;5073496;28;20055;-75
2022/07/06 08:00:36;;;;;;;2.78;1.77;;;;;;;27.50;52.03;101255.47;5072295;28;20055;-76
2022/07/06 08:03:04;;;;;;;3.15;1.70;;;;;;;27.50;51.74;101259.03;5073203;28;20052;-75
2022/07/06 08:05:31;;;;;;;4.13;1.95;;;;;;;27.50;52.29;101256.31;5073684;28;20041;-75
2022/07/06 08:07:58;;;;;;;3.55;1.80;;;;;;;27.50;52.61;101250.88;5073701;28;20051;-75
2022/07/06 08:10:26;;;;;;;4.32;2.10;;;;;;;27.50;52.13;101255.47;5073409;28;20048;-76
2022/07/06 08:12:53;;;;;;;6.78;1.98;;;;;;;27.51;52.21;101257.19;5073187;28;20047;-75
2022/07/06 08:15:22;;;;;;;5.53;1.95;;;;;;;27.59;52.16;101249.00;5057804;28;20071;-76
2022/07/06 08:17:49;;;;;;;3.45;1.80;;;;;;;27.62;52.26;101243.19;5075924;28;20051;-75
2022/07/06 08:20:17;;;;;;;3.35;1.60;;;;;;;27.64;52.21;101249.31;5077651;28;20434;-76
2022/07/06 08:22:44;;;;;;;5.22;2.25;;;;;;;27.65;52.46;101247.44;5077180;28;20071;-75
2022/07/06 08:25:11;;;;;;;5.53;2.13;;;;;;;27.64;52.09;101251.19;5076916;28;20041;-75
2022/07/06 08:27:40;;;;;;;3.75;1.95;;;;;;;27.65;52.43;101252.88;5077030;28;20052;-76
2022/07/06 08:30:09;;;;;;;5.35;2.15;;;;;;;27.63;52.17;101254.91;5077259;28;20036;-76
2022/07/06 08:32:38;;;;;;;5.72;2.20;;;;;;;27.63;52.78;101257.63;5077056;28;20055;-76
2022/07/06 08:35:25;;;;;;;7.15;2.30;;;;;;;27.61;52.87;101264.09;5076525;28;20055;-78
2022/07/06 08:37:53;;;;;;;6.22;2.17;;;;;;;27.62;53.09;101273.09;5076962;28;20049;-76
2022/07/06 08:40:20;;;;;;;3.33;1.90;;;;;;;27.62;52.92;101270.38;5077138;28;20045;-76
2022/07/06 08:42:53;;;;;;;4.72;2.10;;;;;;;27.64;52.69;101281.94;5076558;28;20059;-75
2022/07/06 08:45:21;;;;;;;6.20;2.70;;;;;;;27.70;52.75;101269.50;5076507;28;20051;-78
2022/07/06 08:47:50;;;;;;;7.30;2.08;;;;;;;27.72;52.51;101271.03;5077080;28;20040;-76
2022/07/06 08:50:17;;;;;;;5.15;2.25;;;;;;;27.84;53.22;101283.25;5077318;28;20111;-77
2022/07/06 08:52:47;;;;;;;6.70;2.35;;;;;;;27.99;51.92;101272.44;5075772;28;20063;-76
2022/07/06 08:55:15;;;;;;;5.10;2.38;;;;;;;28.00;52.20;101276.03;5075953;28;20043;-80
2022/07/06 08:57:46;;;;;;;5.20;2.30;;;;;;;28.03;52.53;101271.06;5074454;28;20053;-78
2022/07/06 09:00:14;;;;;;;6.07;2.35;;;;;;;28.04;52.56;101274.66;5076439;28;20040;-77
2022/07/06 09:02:42;;;;;;;6.38;2.35;;;;;;;28.04;52.32;101270.06;5076569;28;20055;-77
2022/07/06 09:05:15;;;;;;;5.05;2.58;;;;;;;28.03;52.54;101265.59;5075873;28;20507;-78
2022/07/06 09:07:46;;;;;;;6.90;2.55;;;;;;;28.04;52.24;101266.47;5076431;28;20045;-77
2022/07/06 09:10:26;;;;;;;5.13;2.40;;;;;;;28.04;52.54;101269.22;5076332;28;20044;-77
2022/07/06 09:13:03;;;;;;;5.18;2.40;;;;;;;28.02;52.60;101269.38;5075951;28;20036;-77
2022/07/06 09:15:32;;;;;;;4.80;2.53;;;;;;;28.01;53.04;101259.50;5076148;28;20048;-77
2022/07/06 09:18:00;;;;;;;4.15;2.50;;;;;;;28.00;53.42;101267.88;5076037;28;20052;-78
2022/07/06 09:20:27;;;;;;;6.32;2.78;;;;;;;27.98;53.28;101261.75;5057930;28;20053;-77
2022/07/06 09:23:00;;;;;;;5.10;2.40;;;;;;;27.96;53.03;101266.53;5075890;28;20049;-78
2022/07/06 09:25:28;;;;;;;3.53;2.50;;;;;;;27.94;53.02;101266.69;5074467;28;20499;-77
2022/07/06 09:27:57;;;;;;;7.57;2.83;;;;;;;27.93;53.25;101267.72;5075820;28;20044;-78
2022/07/06 09:30:26;;;;;;;4.82;2.50;;;;;;;27.92;53.18;101267.91;5075563;28;20067;-80
2022/07/06 09:32:58;;;;;;;3.47;2.35;;;;;;;27.92;52.96;101267.91;5075855;28;20357;-78
2022/07/06 09:35:28;;;;;;;6.97;2.78;;;;;;;27.92;52.96;101263.31;5076051;28;20063;-77
2022/07/06 09:38:03;;;;;;;4.43;2.70;;;;;;;27.92;53.22;101257.88;5074904;28;20049;-76
2022/07/06 09:40:32;;;;;;;5.25;2.65;;;;;;;27.93;53.28;101253.28;5075960;28;20045;-77
2022/07/06 09:43:20;;;;;;;3.80;2.47;;;;;;;27.92;53.32;101247.00;5075250;28;20053;-77
2022/07/06 09:45:50;;;;;;;5.82;3.15;;;;;;;27.93;53.35;101250.56;5075450;28;20044;-80
2022/07/06 09:48:23;;;;;;;5.85;2.60;;;;;;;27.96;53.21;101250.19;5075418;28;20044;-77
2022/07/06 09:50:53;;;;;;;4.40;2.38;;;;;;;27.97;53.64;101250.00;5074610;28;20049;-78
2022/07/06 09:53:22;;;;;;;4.53;2.58;;;;;;;27.98;53.13;101251.69;5075138;28;20067;-78
2022/07/06 09:55:54;;;;;;;4.60;2.42;;;;;;;27.99;53.36;101253.38;5074986;28;20052;-77
2022/07/06 09:58:22;;;;;;;3.17;2.53;;;;;;;28.01;53.28;101250.50;5073809;28;20052;-79
2022/07/06 10:01:09;;;;;;;8.05;2.53;;;;;;;28.00;53.28;101246.94;5075029;28;20037;-78
2022/07/06 10:03:38;;;;;;;8.20;3.10;;;;;;;28.00;53.17;101230.59;5074949;28;20408;-78
2022/07/06 10:06:06;;;;;;;7.88;3.35;;;;;;;28.02;53.54;101233.97;5074019;28;20044;-78
2022/07/06 10:08:34;;;;;;;4.82;2.83;;;;;;;28.04;52.59;101228.38;5074666;28;20056;-76
2022/07/06 10:11:02;;;;;;;4.35;2.95;;;;;;;28.06;52.68;101235.31;5073526;28;20044;-79
2022/07/06 10:13:30;;;;;;;3.65;2.70;;;;;;;28.10;52.96;101230.38;5075303;28;20048;-78
2022/07/06 10:15:59;;;;;;;7.47;3.05;;;;;;;28.12;52.81;101236.50;5073228;28;20063;-77
2022/07/06 10:18:27;;;;;;;5.22;3.08;;;;;;;28.16;52.82;101234.25;5074535;28;20047;-77
2022/07/06 10:20:55;;;;;;;3.70;2.47;;;;;;;28.16;52.67;101220.66;5074704;28;20043;-78
2022/07/06 10:23:23;;;;;;;4.47;2.72;;;;;;;28.15;53.12;101222.50;5074345;28;20045;-77
2022/07/06 10:25:51;;;;;;;6.38;2.90;;;;;;;28.15;53.22;101219.78;5074956;28;20051;-76
2022/07/06 10:28:19;;;;;;;4.13;2.75;;;;;;;28.17;53.32;101230.50;5074377;28;20403;-77
2022/07/06 10:30:49;;;;;;;4.05;3.20;;;;;;;28.16;53.58;101226.94;5074324;28;20084;-79
2022/07/06 10:33:17;;;;;;;6.53;3.08;;;;;;;28.19;52.89;101229.28;5074339;28;20044;-78
2022/07/06 10:35:49;;;;;;;6.53;3.40;;;;;;;28.19;51.67;101223.81;5073826;28;20476;-77
2022/07/06 10:38:17;;;;;;;4.57;3.28;;;;;;;28.23;51.75;101214.28;5071808;28;20044;-76
2022/07/06 10:41:02;;;;;;;4.90;2.78;;;;;;;28.25;51.92;101216.81;5074666;28;20041;-76
2022/07/06 10:43:38;;;;;;;6.13;3.10;;;;;;;28.26;52.18;101207.63;5074174;28;20052;-78
2022/07/06 10:46:07;;;;;;;4.28;2.95;;;;;;;28.28;52.66;101216.47;5074695;28;20063;-76
2022/07/06 10:48:39;;;;;;;7.05;3.33;;;;;;;28.30;52.79;101206.22;5073945;28;20048;-78
2022/07/06 10:51:08;;;;;;;4.78;3.13;;;;;;;28.33;52.60;101208.59;5073228;28;20044;-80
2022/07/06 10:53:40;;;;;;;4.13;2.63;;;;;;;28.33;52.89;101206.72;5073917;28;20044;-77
2022/07/06 10:56:09;;;;;;;5.60;3.45;;;;;;;28.34;52.56;101204.84;5074460;28;20052;-77
2022/07/06 10:58:45;;;;;;;6.13;3.55;;;;;;;28.35;52.96;101196.47;5074235;28;20052;-78
2022/07/06 11:01:16;;;;;;;4.65;2.90;;;;;;;28.36;53.28;101197.38;5073896;28;20056;-77
2022/07/06 11:03:56;;;;;;;5.00;3.70;;;;;;;28.38;53.47;101206.19;5074396;28;20040;-78
2022/07/06 11:06:25;;;;;;;4.07;3.20;;;;;;;28.39;53.18;101194.25;5074058;28;20052;-78
2022/07/06 11:08:57;;;;;;;7.30;3.70;;;;;;;28.42;51.88;101198.50;5072465;28;20056;-78
2022/07/06 11:11:26;;;;;;;6.20;2.92;;;;;;;28.44;52.14;101205.47;5074682;28;20044;-78
2022/07/06 11:13:55;;;;;;;6.07;3.25;;;;;;;28.44;52.46;101194.59;5074239;28;20400;-78
2022/07/06 11:16:26;;;;;;;4.78;3.00;;;;;;;28.45;52.42;101189.97;5073614;28;20051;-77
2022/07/06 11:19:09;;;;;;;4.78;3.08;;;;;;;28.46;52.65;101191.66;5074151;28;20051;-78
2022/07/06 11:21:47;;;;;;;;;;;;;;;28.44;52.79;101186.41;5072846;28;20051;-80
2022/07/06 11:24:17;;;;;;;5.10;3.13;;;;;;;28.45;52.76;101173.66;5073606;28;19921;-77
2022/07/06 11:26:46;;;;;;;6.72;3.30;;;;;;;28.47;51.81;101177.84;5074754;28;20044;-79
2022/07/06 11:29:17;;;;;;;6.63;3.15;;;;;;;28.50;51.83;101172.03;5073434;28;20055;-79
2022/07/06 11:31:46;;;;;;;3.65;3.15;;;;;;;28.50;50.61;101166.59;5073814;28;20051;-77
2022/07/06 11:34:20;;;;;;;7.32;3.63;;;;;;;28.51;50.74;101160.13;5074140;28;20467;-80
2022/07/06 11:36:47;;;;;;;8.15;3.40;;;;;;;28.53;50.44;101149.91;5073489;28;20578;-77
2022/07/06 11:39:15;;;;;;;4.65;2.97;;;;;;;28.56;50.86;101151.38;5071614;28;20053;-76